Time;durP1;ratioP1;P1;durP2;ratioP2;P2;SDS_P1;SDS_P2;PMS_P1;PMS_P2;Temp;Humidity;BMP_temperature;BMP_pressure;BME280_temperature;BME280_humidity;BME280_pressure;Samples;Min_cycle;Max_cycle;Signal;HPM_P1;HPM_P2
2023/06/21 00:00:35;;;;;;;18.10;15.85;;;20.10;89.90;;;;;;5039416;28;20392;-74
2023/06/21 00:03:03;;;;;;;18.38;15.68;;;20.10;89.90;;;;;;5030794;28;20082;-74
2023/06/21 00:05:28;;;;;;;21.38;18.13;;;20.10;89.90;;;;;;5040407;28;20504;-74
2023/06/21 00:07:54;;;;;;;20.73;16.83;;;20.10;89.90;;;;;;5034106;28;20029;-74
2023/06/21 00:10:23;;;;;;;17.52;15.27;;;20.10;90.00;;;;;;5037575;28;20079;-74
2023/06/21 00:12:58;;;;;;;17.42;15.52;;;20.10;90.00;;;;;;5035739;28;20049;-74
2023/06/21 00:15:24;;;;;;;21.05;16.48;;;20.00;90.10;;;;;;5037627;28;20056;-74
2023/06/21 00:17:51;;;;;;;20.45;18.10;;;20.10;90.20;;;;;;5035294;28;20627;-74
2023/06/21 00:20:17;;;;;;;20.55;17.33;;;20.10;90.20;;;;;;5039126;28;20055;-73
2023/06/21 00:22:47;;;;;;;19.80;16.55;;;20.00;90.30;;;;;;5036064;28;20364;-73
2023/06/21 00:25:14;;;;;;;21.00;18.00;;;20.10;90.50;;;;;;5033027;28;20021;-74
2023/06/21 00:27:42;;;;;;;20.13;17.95;;;20.10;90.60;;;;;;5036600;28;20584;-73
2023/06/21 00:30:08;;;;;;;20.45;18.25;;;20.10;90.70;;;;;;5039266;28;20424;-73
2023/06/21 00:32:34;;;;;;;23.67;19.23;;;20.10;90.70;;;;;;5038784;28;20706;-73
2023/06/21 00:34:59;;;;;;;25.23;18.98;;;20.10;90.70;;;;;;5034563;28;20032;-74
2023/06/21 00:37:28;;;;;;;21.05;18.05;;;20.10;90.60;;;;;;5039889;28;20033;-75
2023/06/21 00:39:53;;;;;;;22.08;18.00;;;20.10;90.60;;;;;;5044934;28;20036;-74
2023/06/21 00:42:19;;;;;;;23.13;18.77;;;20.10;90.60;;;;;;5033407;28;20080;-74
2023/06/21 00:44:45;;;;;;;21.00;17.83;;;20.00;90.70;;;;;;5040398;28;20075;-74
2023/06/21 00:47:10;;;;;;;23.60;18.70;;;20.00;90.80;;;;;;5042982;28;20375;-73
2023/06/21 00:49:36;;;;;;;19.52;17.02;;;20.00;90.80;;;;;;5041111;28;20196;-73
2023/06/21 00:52:05;;;;;;;20.20;18.20;;;20.00;90.70;;;;;;5036129;28;20032;-73
2023/06/21 00:54:33;;;;;;;22.42;19.17;;;19.90;90.70;;;;;;5042621;28;20074;-73
2023/06/21 00:57:01;;;;;;;19.17;17.13;;;19.90;90.70;;;;;;5039595;28;20049;-73
2023/06/21 00:59:28;;;;;;;23.10;19.20;;;19.90;90.80;;;;;;5042297;28;20028;-74
2023/06/21 01:01:57;;;;;;;18.60;16.60;;;19.90;90.80;;;;;;5040842;28;20036;-73
2023/06/21 01:04:24;;;;;;;21.55;17.63;;;19.90;90.80;;;;;;5039922;28;20064;-74
2023/06/21 01:07:11;;;;;;;19.23;16.15;;;19.90;90.70;;;;;;5038065;28;20033;-73
2023/06/21 01:10:08;;;;;;;19.08;15.45;;;19.90;90.50;;;;;;5040004;28;20508;-74
2023/06/21 01:12:43;;;;;;;19.20;15.25;;;19.90;90.20;;;;;;5041498;28;20442;-73
2023/06/21 01:15:19;;;;;;;16.95;13.88;;;19.90;90.10;;;;;;5043156;28;20060;-74
2023/06/21 01:17:51;;;;;;;16.92;13.20;;;19.90;89.90;;;;;;5040378;28;20037;-73
2023/06/21 01:20:24;;;;;;;15.68;12.73;;;19.80;89.50;;;;;;5041416;28;20128;-73
2023/06/21 01:23:16;;;;;;;15.25;11.75;;;19.80;89.20;;;;;;5042324;28;20064;-73
2023/06/21 01:26:20;;;;;;;14.35;10.45;;;19.80;89.10;;;;;;5039162;28;20029;-73
2023/06/21 01:29:13;;;;;;;13.57;10.10;;;19.80;88.60;;;;;;5039449;28;20045;-74
2023/06/21 01:31:42;;;;;;;12.10;8.40;;;19.80;88.00;;;;;;5036626;28;20053;-73
2023/06/21 01:34:09;;;;;;;13.80;8.90;;;19.80;87.80;;;;;;5043453;28;20503;-73
2023/06/21 01:36:39;;;;;;;14.35;10.30;;;19.80;87.60;;;;;;5041590;28;20103;-73
2023/06/21 01:39:08;;;;;;;13.90;9.25;;;19.80;87.40;;;;;;5043770;28;20461;-73
2023/06/21 01:41:35;;;;;;;11.88;8.43;;;19.90;87.40;;;;;;5040473;28;20128;-73
2023/06/21 01:44:02;;;;;;;12.43;9.18;;;19.90;87.30;;;;;;5039092;28;20051;-73
2023/06/21 01:46:28;;;;;;;13.70;8.93;;;19.80;87.20;;;;;;5040505;28;20037;-73
2023/06/21 01:48:54;;;;;;;14.75;9.35;;;19.90;87.00;;;;;;5042350;28;20519;-73
2023/06/21 01:51:21;;;;;;;13.00;9.45;;;19.90;87.10;;;;;;5039553;28;20041;-73
2023/06/21 01:53:48;;;;;;;14.93;9.27;;;19.90;87.10;;;;;;5036150;28;20057;-74
2023/06/21 01:56:17;;;;;;;13.02;8.82;;;19.90;87.00;;;;;;5040105;28;20049;-73
2023/06/21 01:58:45;;;;;;;15.32;9.45;;;19.90;86.80;;;;;;5042079;28;20029;-73
2023/06/21 02:01:11;;;;;;;11.23;9.23;;;19.80;86.70;;;;;;5039653;28;20131;-73
2023/06/21 02:03:40;;;;;;;12.70;8.52;;;19.80;86.80;;;;;;5033204;28;20030;-73
2023/06/21 02:06:08;;;;;;;13.15;8.52;;;19.70;86.90;;;;;;5037408;28;20036;-74
2023/06/21 02:08:35;;;;;;;11.40;9.13;;;19.60;87.00;;;;;;5035625;28;20102;-74
2023/06/21 02:11:01;;;;;;;11.90;8.13;;;19.60;86.80;;;;;;5039334;28;20083;-73
2023/06/21 02:13:27;;;;;;;12.45;8.40;;;19.60;86.80;;;;;;5041856;28;20031;-73
2023/06/21 02:15:54;;;;;;;13.07;8.65;;;19.50;86.80;;;;;;5036540;28;20027;-73
2023/06/21 02:18:23;;;;;;;11.38;8.52;;;19.50;86.90;;;;;;5036386;28;20021;-73
2023/06/21 02:20:49;;;;;;;13.43;8.30;;;19.50;86.90;;;;;;5039419;28;20082;-74
2023/06/21 02:23:15;;;;;;;10.90;8.13;;;19.40;86.90;;;;;;5041064;28;20458;-75
2023/06/21 02:25:41;;;;;;;11.63;7.75;;;19.30;86.90;;;;;;5039893;28;20037;-73
2023/06/21 02:28:07;;;;;;;12.68;7.78;;;19.30;87.00;;;;;;5041863;28;20476;-73
2023/06/21 02:30:32;;;;;;;11.98;8.38;;;19.30;87.00;;;;;;5039531;28;20048;-74
2023/06/21 02:32:58;;;;;;;14.05;8.70;;;19.20;86.90;;;;;;5040817;28;20037;-73
2023/06/21 02:35:24;;;;;;;11.25;8.38;;;19.20;87.00;;;;;;5037236;28;20033;-73
2023/06/21 02:37:50;;;;;;;12.52;8.85;;;19.20;86.80;;;;;;5034965;28;20033;-74
2023/06/21 02:40:16;;;;;;;12.27;8.93;;;19.10;86.90;;;;;;5038157;28;20161;-73
2023/06/21 02:42:42;;;;;;;12.98;8.85;;;19.10;87.10;;;;;;5033698;28;20024;-73
2023/06/21 02:45:11;;;;;;;11.88;8.48;;;19.10;87.10;;;;;;5037874;28;20060;-74
2023/06/21 02:47:37;;;;;;;12.57;8.20;;;19.10;87.20;;;;;;5040844;28;20066;-74
2023/06/21 02:50:04;;;;;;;10.52;7.80;;;19.10;87.30;;;;;;5041467;28;20029;-74
2023/06/21 02:52:30;;;;;;;12.82;9.25;;;19.00;87.40;;;;;;5041577;28;20037;-73
2023/06/21 02:54:55;;;;;;;10.95;7.65;;;19.00;87.30;;;;;;5036640;28;20040;-74
2023/06/21 02:57:21;;;;;;;11.43;7.65;;;18.90;87.20;;;;;;5035318;28;20034;-74
2023/06/21 02:59:50;;;;;;;12.13;7.97;;;18.90;87.30;;;;;;5037596;28;20078;-73
2023/06/21 03:02:18;;;;;;;12.25;8.18;;;18.90;87.20;;;;;;5032009;28;20065;-73
2023/06/21 03:04:44;;;;;;;16.02;9.55;;;18.90;87.10;;;;;;5036419;28;20120;-74
2023/06/21 03:07:10;;;;;;;12.10;9.10;;;18.90;87.30;;;;;;5034514;28;20476;-73
2023/06/21 03:09:36;;;;;;;12.02;9.05;;;18.90;87.30;;;;;;5036027;28;20041;-73
2023/06/21 03:12:08;;;;;;;12.07;9.05;;;18.80;87.30;;;;;;5039818;28;20099;-74
2023/06/21 03:14:42;;;;;;;14.13;9.23;;;18.80;87.30;;;;;;5056926;28;20663;-74
2023/06/21 03:17:09;;;;;;;10.73;8.07;;;18.80;87.10;;;;;;5032075;28;20662;-74
2023/06/21 03:19:35;;;;;;;14.30;8.38;;;18.80;87.00;;;;;;5022048;28;20039;-74
2023/06/21 03:22:02;;;;;;;11.35;7.80;;;18.80;87.00;;;;;;5024307;28;20034;-74
2023/06/21 03:24:32;;;;;;;12.52;7.90;;;18.80;87.00;;;;;;5019344;28;20585;-74
2023/06/21 03:26:58;;;;;;;13.32;7.95;;;18.80;87.00;;;;;;5028114;28;20030;-74
2023/06/21 03:29:24;;;;;;;12.80;7.68;;;18.80;86.90;;;;;;5020512;28;20025;-74
2023/06/21 03:31:49;;;;;;;10.48;7.22;;;18.80;86.50;;;;;;5022051;28;20060;-74
2023/06/21 03:34:15;;;;;;;11.43;6.68;;;18.80;86.10;;;;;;5019366;28;20723;-75
2023/06/21 03:36:41;;;;;;;10.43;6.30;;;18.80;86.10;;;;;;5023263;28;20041;-74
2023/06/21 03:39:06;;;;;;;12.60;6.70;;;18.70;86.10;;;;;;5026093;28;20474;-73
2023/06/21 03:41:32;;;;;;;9.52;6.60;;;18.60;86.00;;;;;;5025614;28;20049;-75
2023/06/21 03:43:58;;;;;;;9.60;6.07;;;18.60;85.90;;;;;;5022797;28;20377;-74
2023/06/21 03:46:25;;;;;;;10.20;6.47;;;18.60;85.90;;;;;;5025344;28;20299;-73
2023/06/21 03:48:53;;;;;;;11.60;6.55;;;18.60;85.70;;;;;;5029271;28;20466;-74
2023/06/21 03:51:19;;;;;;;10.30;6.20;;;18.60;85.80;;;;;;5022682;28;20397;-74
2023/06/21 03:53:44;;;;;;;10.23;6.10;;;18.60;85.60;;;;;;5020150;28;20835;-74
2023/06/21 03:56:10;;;;;;;10.38;6.25;;;18.60;85.50;;;;;;5028536;28;20132;-74
2023/06/21 03:58:35;;;;;;;10.77;6.00;;;18.60;85.50;;;;;;5025032;28;20029;-74
2023/06/21 04:01:03;;;;;;;11.77;6.22;;;18.60;85.60;;;;;;5026992;28;20397;-73
2023/06/21 04:03:29;;;;;;;9.10;5.57;;;18.70;85.60;;;;;;5020446;28;20030;-74
2023/06/21 04:05:54;;;;;;;10.32;5.40;;;18.60;85.50;;;;;;5021944;28;20106;-74
2023/06/21 04:08:20;;;;;;;10.25;6.13;;;18.70;85.60;;;;;;5024812;28;20038;-74
2023/06/21 04:10:46;;;;;;;10.15;6.10;;;18.70;85.30;;;;;;5026476;28;20355;-75
2023/06/21 04:13:11;;;;;;;9.55;6.13;;;18.70;85.40;;;;;;5017420;28;20443;-75
2023/06/21 04:15:37;;;;;;;10.80;6.00;;;18.70;85.10;;;;;;5014719;28;20030;-75
2023/06/21 04:18:03;;;;;;;12.60;6.20;;;18.70;85.00;;;;;;5016602;28;20046;-75
2023/06/21 04:20:30;;;;;;;12.40;6.18;;;18.80;85.10;;;;;;5015368;28;20040;-75
2023/06/21 04:22:56;;;;;;;13.15;6.65;;;18.90;84.90;;;;;;5010182;28;20049;-75
2023/06/21 04:25:22;;;;;;;9.80;6.32;;;18.80;84.60;;;;;;5017371;28;20022;-75
2023/06/21 04:27:47;;;;;;;12.40;7.30;;;18.90;84.80;;;;;;5002483;28;20038;-74
2023/06/21 04:30:13;;;;;;;11.55;6.90;;;18.90;84.70;;;;;;5010812;28;20148;-75
2023/06/21 04:32:46;;;;;;;15.50;6.32;;;18.90;84.60;;;;;;4998950;28;20501;-74
2023/06/21 04:35:16;;;;;;;9.88;6.95;;;18.90;84.60;;;;;;4994288;28;20045;-74
2023/06/21 04:37:46;;;;;;;11.40;6.65;;;19.00;84.60;;;;;;5002397;28;20026;-75
2023/06/21 04:40:17;;;;;;;9.63;6.55;;;19.00;84.40;;;;;;5013411;28;20032;-75
2023/06/21 04:42:44;;;;;;;9.15;5.90;;;19.00;84.40;;;;;;4996329;28;20034;-76
2023/06/21 04:45:14;;;;;;;10.75;6.70;;;19.10;84.40;;;;;;5006754;28;20025;-75
2023/06/21 04:47:41;;;;;;;8.55;5.88;;;19.10;84.10;;;;;;4996824;28;20402;-75
2023/06/21 04:50:09;;;;;;;11.20;6.80;;;19.10;84.20;;;;;;5010654;28;20444;-74
2023/06/21 04:52:36;;;;;;;13.23;6.25;;;19.20;84.30;;;;;;5004242;28;20029;-74
2023/06/21 04:55:02;;;;;;;10.23;6.03;;;19.30;84.20;;;;;;5001367;28;20411;-75
2023/06/21 04:57:28;;;;;;;11.82;7.10;;;19.30;84.20;;;;;;5003719;28;20483;-74
2023/06/21 04:59:53;;;;;;;10.48;6.93;;;19.40;83.80;;;;;;5001582;28;20026;-75
2023/06/21 05:02:19;;;;;;;13.88;7.90;;;19.40;83.80;;;;;;5003501;28;20391;-75
2023/06/21 05:04:44;;;;;;;12.02;8.00;;;19.50;83.50;;;;;;5007490;28;20815;-75
2023/06/21 05:07:10;;;;;;;11.07;6.82;;;19.50;83.80;;;;;;5003827;28;20130;-74
2023/06/21 05:09:36;;;;;;;9.63;6.05;;;20.40;83.70;;;;;;4999614;28;20030;-75
2023/06/21 05:12:02;;;;;;;10.10;6.15;;;21.90;79.70;;;;;;5002944;28;20062;-75
2023/06/21 05:14:27;;;;;;;10.52;6.13;;;23.40;73.60;;;;;;5004339;28;20073;-76
2023/06/21 05:16:53;;;;;;;9.02;6.20;;;24.20;68.80;;;;;;5001296;28;20708;-75
2023/06/21 05:19:18;;;;;;;10.65;5.80;;;24.80;65.50;;;;;;5008047;28;20112;-74
2023/06/21 05:21:44;;;;;;;12.02;6.93;;;25.50;63.40;;;;;;5002540;28;20600;-74
2023/06/21 05:24:10;;;;;;;11.40;6.80;;;25.80;61.90;;;;;;5001275;28;20076;-74
2023/06/21 05:26:36;;;;;;;10.60;6.70;;;26.30;60.60;;;;;;5000780;28;20038;-75
2023/06/21 05:29:01;;;;;;;9.10;6.35;;;26.60;59.40;;;;;;5009439;28;20454;-74
2023/06/21 05:31:28;;;;;;;11.10;6.68;;;27.00;58.00;;;;;;5004146;28;20048;-74
2023/06/21 05:33:54;;;;;;;11.57;6.78;;;27.10;56.80;;;;;;5003486;28;20038;-75
2023/06/21 05:36:19;;;;;;;11.07;6.68;;;27.00;57.50;;;;;;4999879;28;20759;-77
2023/06/21 05:38:45;;;;;;;9.43;6.28;;;27.10;57.70;;;;;;4984212;28;20041;-77
2023/06/21 05:41:11;;;;;;;9.60;6.78;;;27.30;57.00;;;;;;4983942;28;20116;-78
2023/06/21 05:43:36;;;;;;;11.68;6.93;;;27.10;56.50;;;;;;4982547;28;20097;-76
2023/06/21 05:46:02;;;;;;;11.18;6.63;;;26.60;57.80;;;;;;4986681;28;20026;-75
2023/06/21 05:48:29;;;;;;;11.65;7.07;;;26.10;59.90;;;;;;5000624;28;20026;-75
2023/06/21 05:50:55;;;;;;;9.80;6.70;;;25.80;61.00;;;;;;4997663;28;20097;-76
2023/06/21 05:53:20;;;;;;;11.95;7.32;;;25.10;63.10;;;;;;4989902;28;20030;-75
2023/06/21 05:55:46;;;;;;;10.48;7.65;;;24.70;63.50;;;;;;4996114;28;20152;-78
2023/06/21 05:58:12;;;;;;;14.27;8.73;;;23.90;65.30;;;;;;5005610;28;20404;-76
2023/06/21 06:00:38;;;;;;;11.50;8.10;;;23.10;67.90;;;;;;4999838;28;20099;-76
2023/06/21 06:03:03;;;;;;;14.38;8.95;;;22.30;71.00;;;;;;5000181;28;20045;-76
2023/06/21 06:05:29;;;;;;;13.57;9.77;;;22.00;72.70;;;;;;5006941;28;20053;-77
2023/06/21 06:07:55;;;;;;;14.38;8.88;;;21.60;73.60;;;;;;5000267;28;20065;-76
2023/06/21 06:10:20;;;;;;;12.13;8.52;;;21.20;75.10;;;;;;4999205;28;20023;-76
2023/06/21 06:12:46;;;;;;;12.88;9.50;;;21.00;75.90;;;;;;4999855;28;20410;-77
2023/06/21 06:15:12;;;;;;;13.15;9.43;;;21.10;76.20;;;;;;4994799;28;20040;-78
2023/06/21 06:17:37;;;;;;;11.77;8.95;;;21.20;76.30;;;;;;5004206;28;20040;-78
2023/06/21 06:20:05;;;;;;;12.20;8.57;;;21.50;75.90;;;;;;5003700;28;20108;-78
2023/06/21 06:22:35;;;;;;;13.02;8.82;;;21.70;75.00;;;;;;4998316;28;20493;-81
2023/06/21 06:25:02;;;;;;;11.57;7.15;;;21.60;75.20;;;;;;5001946;28;20153;-78
2023/06/21 06:27:28;;;;;;;11.65;7.60;;;21.70;74.90;;;;;;4988014;28;20035;-79
2023/06/21 06:29:54;;;;;;;10.77;6.90;;;21.90;74.40;;;;;;4973903;28;20022;-79
2023/06/21 06:32:19;;;;;;;12.63;7.70;;;22.10;74.50;;;;;;4973437;28;20380;-78
2023/06/21 06:34:45;;;;;;;12.43;6.60;;;22.30;73.20;;;;;;4976352;28;20502;-79
2023/06/21 06:37:11;;;;;;;12.60;7.13;;;22.40;73.00;;;;;;4971975;28;20080;-78
2023/06/21 06:39:37;;;;;;;10.25;6.80;;;22.10;71.60;;;;;;4981745;28;20018;-77
2023/06/21 06:42:03;;;;;;;11.85;7.28;;;21.90;73.80;;;;;;4981698;28;20061;-77
2023/06/21 06:44:29;;;;;;;14.52;7.28;;;21.50;73.10;;;;;;4981118;28;20022;-77
2023/06/21 06:46:54;;;;;;;10.82;6.65;;;21.20;74.60;;;;;;4976518;28;20043;-77
2023/06/21 06:49:20;;;;;;;13.05;7.55;;;21.10;74.80;;;;;;4973743;28;20022;-77
2023/06/21 06:51:45;;;;;;;10.13;6.97;;;21.10;75.30;;;;;;4970769;28;20773;-78
2023/06/21 06:54:11;;;;;;;11.55;7.15;;;21.40;75.00;;;;;;4973286;28;20126;-77
2023/06/21 06:56:37;;;;;;;10.77;7.50;;;21.70;74.50;;;;;;4974994;28;20121;-77
2023/06/21 06:59:03;;;;;;;9.73;6.13;;;22.10;73.30;;;;;;4980528;28;20276;-74
2023/06/21 07:01:28;;;;;;;9.48;5.30;;;22.40;71.90;;;;;;4975543;28;20034;-76
2023/06/21 07:03:54;;;;;;;7.75;4.60;;;22.40;70.90;;;;;;4972608;28;20034;-73
2023/06/21 07:06:20;;;;;;;8.07;5.38;;;22.50;69.60;;;;;;4976228;28;20081;-74
2023/06/21 07:08:46;;;;;;;10.10;5.40;;;22.60;69.90;;;;;;4969467;28;20018;-75
2023/06/21 07:11:13;;;;;;;11.02;5.57;;;22.60;69.70;;;;;;4969705;28;20281;-76
2023/06/21 07:13:39;;;;;;;9.70;6.25;;;22.60;69.70;;;;;;4978008;28;20046;-74
2023/06/21 07:16:05;;;;;;;12.23;5.70;;;22.70;69.80;;;;;;4978357;28;20093;-74
2023/06/21 07:18:30;;;;;;;9.02;4.90;;;22.80;68.80;;;;;;4975355;28;20035;-74
2023/06/21 07:20:56;;;;;;;10.10;6.00;;;23.00;69.60;;;;;;4968866;28;20023;-77
2023/06/21 07:23:22;;;;;;;9.98;6.38;;;23.00;68.80;;;;;;4978845;28;20113;-75
2023/06/21 07:25:48;;;;;;;9.82;5.60;;;23.00;68.60;;;;;;4974776;28;20031;-74
2023/06/21 07:28:14;;;;;;;10.43;4.68;;;23.00;68.80;;;;;;4978997;28;20037;-74
2023/06/21 07:30:39;;;;;;;10.10;4.93;;;23.10;68.50;;;;;;4981430;28;20145;-80
2023/06/21 07:33:08;;;;;;;7.10;4.55;;;23.30;68.70;;;;;;4975989;28;20121;-76
2023/06/21 07:35:34;;;;;;;8.93;4.65;;;23.20;67.40;;;;;;4976468;28;20579;-76
2023/06/21 07:38:00;;;;;;;9.73;5.05;;;23.20;65.80;;;;;;4975893;28;20088;-78
2023/06/21 07:40:25;;;;;;;9.48;6.05;;;23.10;65.10;;;;;;4975679;28;20640;-75
2023/06/21 07:42:51;;;;;;;9.48;5.53;;;22.60;66.80;;;;;;4978066;28;20407;-75
2023/06/21 07:45:17;;;;;;;13.55;6.00;;;22.70;68.10;;;;;;4980126;28;20529;-76
2023/06/21 07:47:42;;;;;;;11.90;7.38;;;22.70;67.80;;;;;;4982012;28;20395;-79
2023/06/21 07:50:08;;;;;;;11.93;6.88;;;22.80;67.90;;;;;;4968907;28;20106;-76
2023/06/21 07:52:34;;;;;;;9.35;7.15;;;22.70;68.20;;;;;;4982762;28;20035;-75
2023/06/21 07:54:59;;;;;;;9.50;6.78;;;22.60;69.00;;;;;;4981439;28;20037;-78
2023/06/21 07:57:25;;;;;;;10.00;5.80;;;22.90;68.70;;;;;;4982974;28;20034;-78
2023/06/21 07:59:51;;;;;;;9.57;7.65;;;23.30;67.30;;;;;;4983598;28;20043;-75
2023/06/21 08:02:18;;;;;;;9.85;7.20;;;22.90;67.30;;;;;;4983607;28;20030;-76
2023/06/21 08:04:45;;;;;;;11.73;7.85;;;23.00;67.60;;;;;;4983319;28;20030;-75
2023/06/21 08:07:11;;;;;;;11.95;7.53;;;23.30;67.30;;;;;;4974797;28;20030;-77
2023/06/21 08:09:37;;;;;;;12.40;7.50;;;23.40;68.20;;;;;;4983737;28;20489;-76
2023/06/21 08:12:03;;;;;;;10.55;7.75;;;23.60;67.10;;;;;;4983954;28;20042;-77
2023/06/21 08:14:28;;;;;;;9.90;7.20;;;23.90;64.40;;;;;;4983129;28;20054;-74
2023/06/21 08:16:55;;;;;;;10.98;8.20;;;24.00;64.10;;;;;;4983701;28;20038;-78
2023/06/21 08:19:21;;;;;;;9.93;8.15;;;23.80;64.60;;;;;;4983444;28;20026;-77
2023/06/21 08:21:46;;;;;;;10.40;7.15;;;23.90;66.70;;;;;;4986139;28;20049;-77
2023/06/21 08:24:12;;;;;;;13.20;7.80;;;24.10;64.90;;;;;;4979931;28;20181;-75
2023/06/21 08:26:38;;;;;;;10.98;7.20;;;24.20;63.70;;;;;;4983508;28;20074;-74
2023/06/21 08:29:04;;;;;;;11.25;6.75;;;24.40;62.60;;;;;;4974618;28;20435;-78
2023/06/21 08:31:30;;;;;;;8.30;6.03;;;24.50;62.10;;;;;;4980750;28;20557;-79
2023/06/21 08:33:56;;;;;;;9.30;6.43;;;24.30;62.30;;;;;;4980350;28;20121;-78
2023/06/21 08:36:22;;;;;;;10.18;7.50;;;24.30;63.00;;;;;;4980182;28;20155;-77
2023/06/21 08:38:48;;;;;;;8.93;6.68;;;24.20;62.40;;;;;;4979973;28;20041;-76
2023/06/21 08:41:14;;;;;;;11.10;6.15;;;24.10;62.60;;;;;;4976776;28;20056;-76
2023/06/21 08:43:39;;;;;;;9.43;5.90;;;24.40;62.60;;;;;;4979956;28;20506;-77
2023/06/21 08:46:06;;;;;;;9.13;6.20;;;24.80;61.30;;;;;;4978980;28;20038;-77
2023/06/21 08:48:33;;;;;;;9.63;6.10;;;25.00;60.80;;;;;;4979099;28;20033;-76
2023/06/21 08:50:59;;;;;;;9.23;6.40;;;24.80;60.40;;;;;;4977604;28;20040;-77
2023/06/21 08:53:49;;;;;;;10.07;6.40;;;24.40;61.10;;;;;;4981081;28;20030;-78
2023/06/21 08:56:20;;;;;;;7.80;5.28;;;24.50;61.80;;;;;;4983240;28;20042;-77
2023/06/21 08:58:51;;;;;;;7.78;5.30;;;24.70;61.40;;;;;;4980930;28;20089;-77
2023/06/21 09:01:20;;;;;;;9.57;6.35;;;24.90;61.40;;;;;;4981731;28;20034;-77
2023/06/21 09:03:56;;;;;;;11.52;6.97;;;25.20;61.10;;;;;;4982191;28;20101;-76
2023/06/21 09:06:24;;;;;;;11.73;6.75;;;25.00;60.70;;;;;;4977196;28;20045;-77
2023/06/21 09:08:54;;;;;;;11.32;6.18;;;24.90;61.90;;;;;;4978963;28;20018;-76
2023/06/21 09:11:24;;;;;;;8.90;6.05;;;24.70;60.80;;;;;;4982559;28;20030;-77
2023/06/21 09:13:51;;;;;;;10.70;5.85;;;24.60;61.30;;;;;;4981812;28;20051;-77
2023/06/21 09:16:17;;;;;;;9.73;5.75;;;25.00;61.50;;;;;;4977506;28;20054;-76
2023/06/21 09:18:46;;;;;;;9.02;6.07;;;25.20;59.40;;;;;;4980594;28;20042;-76
2023/06/21 09:21:12;;;;;;;9.93;6.95;;;25.30;60.20;;;;;;4982780;28;20053;-77
2023/06/21 09:23:39;;;;;;;10.82;6.78;;;25.40;59.20;;;;;;4978716;28;20022;-77
2023/06/21 09:26:06;;;;;;;11.60;7.03;;;25.70;59.40;;;;;;4980378;28;20405;-79
2023/06/21 09:28:32;;;;;;;9.60;5.45;;;25.50;59.60;;;;;;4981692;28;20467;-78
2023/06/21 09:30:58;;;;;;;9.93;5.55;;;25.40;58.40;;;;;;4977307;28;20026;-77
2023/06/21 09:33:25;;;;;;;10.32;5.68;;;25.30;60.00;;;;;;4978408;28;20038;-77
2023/06/21 09:35:51;;;;;;;9.25;5.68;;;25.50;59.10;;;;;;4978460;28;20713;-78
2023/06/21 09:38:23;;;;;;;8.55;5.60;;;25.50;59.50;;;;;;4975042;28;20023;-76
2023/06/21 09:40:49;;;;;;;9.25;5.80;;;25.70;57.70;;;;;;4980643;28;20029;-76
2023/06/21 09:43:16;;;;;;;8.45;5.80;;;25.80;58.60;;;;;;4983199;28;20034;-77
2023/06/21 09:45:42;;;;;;;9.63;7.00;;;26.00;58.60;;;;;;4979285;28;20045;-77
2023/06/21 09:48:15;;;;;;;9.55;5.13;;;25.60;58.10;;;;;;4983325;28;20062;-78
2023/06/21 09:50:44;;;;;;;8.80;5.05;;;25.70;58.30;;;;;;4972814;28;20019;-79
2023/06/21 09:53:11;;;;;;;6.78;4.35;;;26.00;58.00;;;;;;4980385;28;20644;-76
2023/06/21 09:55:43;;;;;;;7.68;4.40;;;26.40;56.60;;;;;;4979661;28;20062;-75
2023/06/21 09:58:08;;;;;;;6.78;4.05;;;26.50;54.90;;;;;;4981190;28;20105;-76
2023/06/21 10:00:38;;;;;;;10.55;4.60;;;26.60;55.50;;;;;;4980332;28;20460;-76
2023/06/21 10:03:04;;;;;;;8.52;4.75;;;26.40;54.70;;;;;;4981219;28;20042;-76
2023/06/21 10:05:29;;;;;;;10.05;5.15;;;26.40;54.70;;;;;;4982745;28;20162;-76
2023/06/21 10:07:57;;;;;;;7.10;4.60;;;26.30;55.00;;;;;;4975626;28;20046;-76
2023/06/21 10:10:23;;;;;;;7.30;4.35;;;25.80;56.80;;;;;;4975417;28;20035;-77
2023/06/21 10:12:53;;;;;;;8.38;5.00;;;26.00;56.00;;;;;;4977869;28;20116;-77
2023/06/21 10:15:19;;;;;;;8.98;5.60;;;25.50;57.10;;;;;;4976288;28;20080;-77
2023/06/21 10:17:46;;;;;;;9.13;5.97;;;25.70;57.00;;;;;;4972157;28;20487;-77
2023/06/21 10:20:14;;;;;;;8.00;4.45;;;25.70;58.40;;;;;;4981469;28;20376;-75
2023/06/21 10:22:43;;;;;;;7.15;4.05;;;26.10;56.40;;;;;;4994567;28;20451;-78
2023/06/21 10:25:10;;;;;;;7.45;4.25;;;26.40;55.20;;;;;;5019717;28;20026;-76
2023/06/21 10:27:37;;;;;;;7.57;4.00;;;26.30;55.50;;;;;;5001233;28;20685;-76
2023/06/21 10:30:04;;;;;;;9.63;5.03;;;26.50;54.20;;;;;;4995800;28;20029;-77
2023/06/21 10:32:34;;;;;;;7.60;4.15;;;26.30;55.30;;;;;;5007107;28;20037;-76
2023/06/21 10:35:19;;;;;;;6.65;3.72;;;26.60;54.20;;;;;;5006123;28;20028;-75
2023/06/21 10:37:48;;;;;;;6.80;3.50;;;26.80;52.30;;;;;;5007251;28;20029;-79
2023/06/21 10:40:15;;;;;;;6.50;3.40;;;26.80;53.30;;;;;;5006909;28;20030;-81
2023/06/21 10:42:42;;;;;;;6.88;3.20;;;27.20;52.80;;;;;;4996863;28;20557;-79
2023/06/21 10:45:12;;;;;;;7.80;3.45;;;27.50;50.50;;;;;;5010209;28;20025;-79
2023/06/21 10:47:39;;;;;;;6.50;3.60;;;27.70;50.50;;;;;;5000441;28;20092;-79
2023/06/21 10:50:09;;;;;;;6.82;3.85;;;26.80;52.00;;;;;;5002673;28;20026;-81
2023/06/21 10:52:36;;;;;;;6.35;3.17;;;26.80;51.30;;;;;;5001205;28;20615;-80
2023/06/21 10:55:03;;;;;;;5.78;3.40;;;26.90;54.20;;;;;;5008467;28;20083;-81
2023/06/21 10:57:31;;;;;;;6.50;3.65;;;26.90;52.20;;;;;;5004276;28;20029;-81
2023/06/21 11:00:03;;;;;;;7.40;3.10;;;27.30;52.60;;;;;;5002218;28;20566;-79
2023/06/21 11:02:29;;;;;;;8.75;4.35;;;26.90;53.80;;;;;;5005071;28;20698;-83
2023/06/21 11:05:19;;;;;;;6.18;3.70;;;26.40;54.30;;;;;;4999750;28;20025;-81
2023/06/21 11:07:46;;;;;;;9.35;4.43;;;26.50;54.60;;;;;;5002627;28;20077;-80
2023/06/21 11:10:12;;;;;;;6.07;3.03;;;26.60;54.80;;;;;;4996718;28;20045;-80
2023/06/21 11:12:38;;;;;;;5.97;2.55;;;27.10;52.80;;;;;;4994092;28;20474;-80
2023/06/21 11:15:05;;;;;;;5.60;2.28;;;27.60;50.40;;;;;;4993314;28;20074;-80
2023/06/21 11:17:34;;;;;;;5.07;2.22;;;28.10;49.50;;;;;;4987542;28;20403;-80
2023/06/21 11:20:23;;;;;;;5.40;2.75;;;28.50;48.50;;;;;;4986739;28;20164;-80
2023/06/21 11:22:59;;;;;;;6.80;2.80;;;27.70;50.60;;;;;;4977848;28;20475;-80
2023/06/21 11:25:26;;;;;;;6.50;2.78;;;28.30;49.40;;;;;;4991397;28;20113;-79
2023/06/21 11:28:18;;;;;;;5.50;2.17;;;28.30;49.80;;;;;;4987182;28;20050;-79
2023/06/21 11:31:07;;;;;;;6.57;2.45;;;28.40;48.40;;;;;;4982070;28;20505;-79
2023/06/21 11:33:54;;;;;;;4.72;2.58;;;28.40;48.70;;;;;;4998896;28;20042;-80
2023/06/21 11:36:25;;;;;;;5.18;2.30;;;28.60;49.00;;;;;;5004640;28;20125;-79
2023/06/21 11:39:06;;;;;;;3.65;2.10;;;28.50;48.30;;;;;;5005819;28;20032;-79
2023/06/21 11:41:44;;;;;;;4.53;2.80;;;28.40;49.20;;;;;;4999782;28;20058;-79
2023/06/21 11:44:29;;;;;;;6.32;2.17;;;28.30;47.70;;;;;;4994114;28;20463;-79
2023/06/21 11:47:17;;;;;;;3.78;2.20;;;27.70;48.10;;;;;;4992232;28;20124;-79
2023/06/21 11:49:53;;;;;;;7.28;2.10;;;27.20;47.80;;;;;;4993386;28;20029;-79
2023/06/21 11:52:24;;;;;;;7.60;2.10;;;27.10;48.90;;;;;;4990767;28;20038;-78
2023/06/21 11:54:49;;;;;;;4.72;2.17;;;27.30;49.20;;;;;;5001787;28;20041;-79
2023/06/21 11:57:15;;;;;;;4.38;1.98;;;27.50;49.20;;;;;;4997523;28;20038;-79
2023/06/21 11:59:40;;;;;;;5.35;2.13;;;27.70;47.90;;;;;;4992140;28;20109;-80
2023/06/21 12:02:14;;;;;;;6.38;2.80;;;27.60;48.50;;;;;;4996918;28;20056;-79
2023/06/21 12:04:41;;;;;;;5.80;2.17;;;27.30;49.00;;;;;;4986211;28;20061;-79
2023/06/21 12:07:07;;;;;;;4.20;2.10;;;27.70;47.90;;;;;;4991394;28;20045;-79
2023/06/21 12:09:33;;;;;;;5.72;2.58;;;28.00;48.10;;;;;;5007002;28;20027;-80
2023/06/21 12:11:59;;;;;;;5.68;2.25;;;27.80;47.80;;;;;;5004896;28;20057;-78
2023/06/21 12:14:26;;;;;;;5.75;2.35;;;27.70;46.40;;;;;;4993779;28;20073;-78
2023/06/21 12:16:51;;;;;;;5.18;2.55;;;27.30;48.40;;;;;;5002911;28;20049;-79
2023/06/21 12:19:21;;;;;;;4.43;2.42;;;27.10;48.00;;;;;;5005276;28;20035;-79
2023/06/21 12:21:47;;;;;;;5.57;2.10;;;27.10;48.80;;;;;;5009823;28;20034;-79
2023/06/21 12:24:13;;;;;;;5.93;2.47;;;27.50;49.20;;;;;;5012443;28;20030;-79
2023/06/21 12:26:52;;;;;;;5.32;2.33;;;27.70;48.90;;;;;;5016699;28;20034;-79
2023/06/21 12:29:17;;;;;;;5.05;2.60;;;27.70;49.20;;;;;;5010397;28;20022;-81
2023/06/21 12:31:43;;;;;;;5.60;2.53;;;27.90;47.40;;;;;;5008125;28;20038;-80
2023/06/21 12:34:15;;;;;;;5.15;2.70;;;27.90;49.30;;;;;;5008448;28;20144;-80
2023/06/21 12:36:43;;;;;;;5.68;2.85;;;28.30;48.00;;;;;;5006966;28;20048;-79
2023/06/21 12:39:09;;;;;;;5.15;2.60;;;28.70;46.50;;;;;;5011211;28;20042;-80
2023/06/21 12:41:35;;;;;;;6.10;2.45;;;28.90;45.90;;;;;;5008775;28;20030;-79
2023/06/21 12:44:03;;;;;;;5.80;2.40;;;28.90;44.80;;;;;;5005617;28;20248;-80